Time;durP1;ratioP1;P1;durP2;ratioP2;P2;SDS_P1;SDS_P2;PMS_P1;PMS_P2;Temp;Humidity;BMP_temperature;BMP_pressure;BME280_temperature;BME280_humidity;BME280_pressure;Samples;Min_cycle;Max_cycle;Signal;HPM_P1;HPM_P2
2022/10/20 00:02:20;;;;;;;414.33;201.70;;;;;;;;;;4995502;28;20196;-69
2022/10/20 00:04:49;;;;;;;368.07;181.93;;;;;;;;;;4981789;28;20206;-68
2022/10/20 00:07:21;;;;;;;278.07;139.20;;;;;;;;;;4981319;28;22134;-69
2022/10/20 00:09:47;;;;;;;408.53;206.87;;;;;;;;;;4991269;28;20213;-69
2022/10/20 00:12:13;;;;;;;414.67;202.73;;;;;;;;;;4974208;28;20261;-69
2022/10/20 00:14:48;;;;;;;389.50;194.67;;;;;;;;;;4979108;28;20232;-69
2022/10/20 00:17:17;;;;;;;465.33;226.37;;;;;;;;;;4976694;28;20669;-72
2022/10/20 00:19:46;;;;;;;382.10;177.60;;;;;;;;;;4979925;28;20338;-73
2022/10/20 00:22:16;;;;;;;304.17;157.73;;;;;;;;;;4982504;28;20281;-69
2022/10/20 00:24:42;;;;;;;245.43;123.37;;;;;;;;;;4991959;28;20515;-71
2022/10/20 00:27:08;;;;;;;466.80;225.33;;;;;;;;;;4984541;28;20567;-70
2022/10/20 00:29:37;;;;;;;494.97;234.23;;;;;;;;;;4986086;28;20181;-70
2022/10/20 00:32:03;;;;;;;482.43;230.60;;;;;;;;;;4973139;28;20213;-69
2022/10/20 00:34:29;;;;;;;389.10;187.07;;;;;;;;;;4995175;28;20274;-70
2022/10/20 00:36:55;;;;;;;312.47;155.37;;;;;;;;;;4986469;28;20880;-70
2022/10/20 00:39:21;;;;;;;460.50;226.67;;;;;;;;;;4979479;28;20225;-69
2022/10/20 00:41:50;;;;;;;487.63;242.97;;;;;;;;;;4980293;28;20669;-70
2022/10/20 00:44:38;;;;;;;376.70;179.87;;;;;;;;;;4999107;28;21596;-70
2022/10/20 00:47:09;;;;;;;353.07;173.23;;;;;;;;;;4982849;28;20620;-69
2022/10/20 00:49:35;;;;;;;425.93;208.37;;;;;;;;;;4979098;28;20224;-68
2022/10/20 00:52:19;;;;;;;397.20;194.43;;;;;;;;;;4976970;28;20247;-71
2022/10/20 00:54:52;;;;;;;406.70;191.27;;;;;;;;;;4977180;28;20351;-70
2022/10/20 00:57:18;;;;;;;285.53;145.47;;;;;;;;;;4984882;28;20306;-69
2022/10/20 00:59:47;;;;;;;233.73;123.67;;;;;;;;;;4985082;28;20620;-70
2022/10/20 01:02:21;;;;;;;230.10;123.27;;;;;;;;;;4981437;28;20209;-72
2022/10/20 01:04:47;;;;;;;332.57;170.67;;;;;;;;;;4983874;28;20220;-68
2022/10/20 01:07:16;;;;;;;460.43;229.10;;;;;;;;;;4972474;28;20596;-71
2022/10/20 01:09:42;;;;;;;402.37;194.67;;;;;;;;;;4977008;28;21135;-70
2022/10/20 01:12:14;;;;;;;349.50;177.30;;;;;;;;;;4984109;28;20217;-70
2022/10/20 01:14:43;;;;;;;430.60;209.30;;;;;;;;;;4981041;28;20733;-70
2022/10/20 01:17:27;;;;;;;406.33;195.83;;;;;;;;;;4973513;28;20236;-69
2022/10/20 01:20:04;;;;;;;323.73;162.77;;;;;;;;;;4995268;28;20253;-70
2022/10/20 01:22:47;;;;;;;350.20;172.40;;;;;;;;;;4993921;28;20277;-69
2022/10/20 01:25:31;;;;;;;415.27;205.43;;;;;;;;;;5002599;28;20304;-70
2022/10/20 01:28:06;;;;;;;339.73;177.17;;;;;;;;;;4992771;28;20227;-70
2022/10/20 01:30:37;;;;;;;396.83;187.77;;;;;;;;;;5005402;28;20734;-68
2022/10/20 01:33:14;;;;;;;228.07;123.80;;;;;;;;;;4996943;28;20226;-70
2022/10/20 01:35:49;;;;;;;417.13;195.30;;;;;;;;;;5004129;28;20195;-70
2022/10/20 01:38:22;;;;;;;436.33;217.57;;;;;;;;;;4998662;28;20661;-69
2022/10/20 01:40:50;;;;;;;296.27;155.87;;;;;;;;;;4994098;28;20224;-69
2022/10/20 01:43:18;;;;;;;377.33;183.23;;;;;;;;;;4997670;28;20266;-69
2022/10/20 01:45:45;;;;;;;471.33;226.17;;;;;;;;;;4997129;28;20226;-71
2022/10/20 01:48:12;;;;;;;340.73;180.93;;;;;;;;;;4992668;28;20238;-72
2022/10/20 01:50:39;;;;;;;510.90;250.80;;;;;;;;;;4993993;28;20188;-69
2022/10/20 01:53:05;;;;;;;396.83;187.23;;;;;;;;;;5006718;28;20268;-69
2022/10/20 01:55:32;;;;;;;200.87;107.13;;;;;;;;;;5001427;28;20231;-68
2022/10/20 01:58:23;;;;;;;272.67;138.77;;;;;;;;;;4997052;28;20228;-70
2022/10/20 02:00:50;;;;;;;352.03;169.20;;;;;;;;;;4998062;28;20282;-70
2022/10/20 02:03:28;;;;;;;423.37;211.77;;;;;;;;;;4998463;28;20203;-71
2022/10/20 02:06:13;;;;;;;312.27;165.10;;;;;;;;;;4989450;28;20277;-70
2022/10/20 02:08:39;;;;;;;331.43;164.93;;;;;;;;;;5008239;28;20655;-68
2022/10/20 02:11:09;;;;;;;519.57;249.77;;;;;;;;;;4993860;28;20204;-69
2022/10/20 02:13:37;;;;;;;413.67;196.13;;;;;;;;;;4995010;28;20231;-70
2022/10/20 02:16:04;;;;;;;335.37;162.70;;;;;;;;;;4998377;28;20466;-68
2022/10/20 02:18:32;;;;;;;312.43;152.13;;;;;;;;;;5003419;28;20459;-69
2022/10/20 02:21:00;;;;;;;220.87;118.97;;;;;;;;;;4998632;28;20195;-70
2022/10/20 02:23:28;;;;;;;506.10;253.13;;;;;;;;;;4997601;28;20600;-70
2022/10/20 02:25:55;;;;;;;269.55;139.20;;;;;;;;;;4995418;28;20247;-69
2022/10/20 02:28:25;;;;;;;376.30;191.13;;;;;;;;;;4983589;28;20330;-69
2022/10/20 02:30:51;;;;;;;203.90;116.03;;;;;;;;;;4977948;28;20657;-67
2022/10/20 02:33:18;;;;;;;253.27;130.47;;;;;;;;;;4989928;28;20216;-68
2022/10/20 02:35:50;;;;;;;247.80;128.40;;;;;;;;;;4987199;28;20690;-68
2022/10/20 02:38:19;;;;;;;330.67;159.73;;;;;;;;;;4990188;28;20332;-68
2022/10/20 02:40:46;;;;;;;443.87;213.60;;;;;;;;;;4978969;28;20762;-68
2022/10/20 02:43:17;;;;;;;162.83;94.73;;;;;;;;;;4986096;28;20223;-69
2022/10/20 02:45:43;;;;;;;412.90;208.07;;;;;;;;;;4976986;28;20212;-69
2022/10/20 02:48:09;;;;;;;298.50;145.77;;;;;;;;;;4982853;28;20217;-68
2022/10/20 02:50:35;;;;;;;364.23;177.67;;;;;;;;;;4969802;28;20189;-71
2022/10/20 02:53:02;;;;;;;367.73;177.00;;;;;;;;;;4983608;28;20299;-69
2022/10/20 02:55:28;;;;;;;242.30;136.90;;;;;;;;;;4978493;28;20217;-68
2022/10/20 02:57:54;;;;;;;315.93;154.33;;;;;;;;;;4981984;28;20283;-68
2022/10/20 03:00:20;;;;;;;297.50;144.50;;;;;;;;;;4982122;28;20597;-68
2022/10/20 03:02:47;;;;;;;459.87;213.90;;;;;;;;;;4980563;28;20209;-68
2022/10/20 03:05:13;;;;;;;200.77;106.50;;;;;;;;;;4987110;28;20328;-70
2022/10/20 03:07:42;;;;;;;436.20;208.43;;;;;;;;;;4978131;28;20310;-68
2022/10/20 03:10:08;;;;;;;234.90;121.77;;;;;;;;;;4980574;28;20213;-68
2022/10/20 03:12:34;;;;;;;383.40;181.17;;;;;;;;;;4973908;28;20248;-68
2022/10/20 03:15:00;;;;;;;203.40;111.13;;;;;;;;;;4974058;28;21980;-68
2022/10/20 03:17:26;;;;;;;322.27;169.53;;;;;;;;;;4974824;28;20375;-68
2022/10/20 03:19:52;;;;;;;450.80;216.93;;;;;;;;;;4979151;28;20225;-67
2022/10/20 03:22:18;;;;;;;193.70;104.90;;;;;;;;;;4983171;28;20298;-68
2022/10/20 03:24:44;;;;;;;401.33;188.57;;;;;;;;;;4974498;28;20282;-68
2022/10/20 03:27:10;;;;;;;166.17;94.93;;;;;;;;;;4990560;28;20220;-68
2022/10/20 03:29:36;;;;;;;192.27;107.10;;;;;;;;;;4979367;28;20188;-67
2022/10/20 03:32:02;;;;;;;164.50;94.83;;;;;;;;;;4983351;28;20213;-68
2022/10/20 03:34:28;;;;;;;338.00;163.57;;;;;;;;;;4987226;28;20776;-67
2022/10/20 03:36:57;;;;;;;382.23;181.60;;;;;;;;;;4983021;28;20228;-68
2022/10/20 03:39:23;;;;;;;299.93;149.00;;;;;;;;;;5003079;28;20213;-68
2022/10/20 03:41:49;;;;;;;415.47;202.23;;;;;;;;;;4981795;28;20797;-68
2022/10/20 03:44:15;;;;;;;197.43;103.53;;;;;;;;;;4988008;28;20845;-68
2022/10/20 03:46:41;;;;;;;282.43;134.73;;;;;;;;;;4982057;28;22730;-69
2022/10/20 03:49:07;;;;;;;231.43;120.20;;;;;;;;;;4983261;28;20317;-68
2022/10/20 03:51:33;;;;;;;338.17;164.87;;;;;;;;;;4985624;28;20280;-67
2022/10/20 03:53:59;;;;;;;270.80;133.23;;;;;;;;;;4983386;28;20868;-68
2022/10/20 03:56:25;;;;;;;368.90;169.63;;;;;;;;;;4979883;28;20354;-68
2022/10/20 03:58:51;;;;;;;366.47;170.57;;;;;;;;;;4985970;28;20934;-68
2022/10/20 04:01:19;;;;;;;161.80;90.50;;;;;;;;;;4982800;28;20235;-68
2022/10/20 04:03:45;;;;;;;385.83;174.93;;;;;;;;;;4990804;28;20221;-67
2022/10/20 04:06:17;;;;;;;408.00;187.40;;;;;;;;;;4990778;28;20356;-69
2022/10/20 04:08:43;;;;;;;389.77;183.57;;;;;;;;;;4977105;28;20203;-68
2022/10/20 04:11:09;;;;;;;147.20;84.50;;;;;;;;;;4978990;28;20220;-67
2022/10/20 04:13:35;;;;;;;272.60;134.47;;;;;;;;;;4991561;28;20251;-69
2022/10/20 04:16:01;;;;;;;355.90;168.67;;;;;;;;;;4992646;28;20217;-69
2022/10/20 04:18:27;;;;;;;223.97;117.10;;;;;;;;;;4984845;28;20736;-67
2022/10/20 04:20:56;;;;;;;392.17;193.57;;;;;;;;;;4980513;28;21330;-69
2022/10/20 04:23:22;;;;;;;237.40;125.30;;;;;;;;;;4985432;28;20275;-68
2022/10/20 04:25:48;;;;;;;190.40;102.40;;;;;;;;;;4987749;28;20916;-68
2022/10/20 04:28:17;;;;;;;146.47;90.33;;;;;;;;;;4988977;28;20231;-67
2022/10/20 04:30:46;;;;;;;260.83;125.60;;;;;;;;;;4991288;28;20280;-68
2022/10/20 04:33:13;;;;;;;307.97;156.73;;;;;;;;;;4990035;28;20213;-69
2022/10/20 04:35:39;;;;;;;239.53;124.60;;;;;;;;;;4986653;28;20216;-67
2022/10/20 04:38:11;;;;;;;465.25;221.80;;;;;;;;;;4981897;28;20484;-70
2022/10/20 04:40:37;;;;;;;181.65;99.95;;;;;;;;;;4987109;28;20612;-67
2022/10/20 04:43:06;;;;;;;246.00;127.80;;;;;;;;;;4982497;28;20364;-67
2022/10/20 04:45:35;;;;;;;215.43;113.93;;;;;;;;;;5003562;28;20223;-68
2022/10/20 04:48:01;;;;;;;260.90;134.97;;;;;;;;;;4987428;28;20208;-68
2022/10/20 04:50:29;;;;;;;345.27;162.37;;;;;;;;;;4986877;28;20209;-69
2022/10/20 04:52:55;;;;;;;151.37;83.37;;;;;;;;;;4975941;28;25806;-68
2022/10/20 04:55:24;;;;;;;366.10;165.60;;;;;;;;;;4985473;28;20217;-68
2022/10/20 04:57:50;;;;;;;70.47;58.33;;;;;;;;;;4989059;28;20225;-67
2022/10/20 05:00:19;;;;;;;373.43;166.93;;;;;;;;;;4982707;28;20275;-68
2022/10/20 05:02:45;;;;;;;299.03;144.97;;;;;;;;;;4991540;28;20276;-69
2022/10/20 05:05:11;;;;;;;264.73;134.37;;;;;;;;;;4994782;28;20295;-67
2022/10/20 05:07:37;;;;;;;179.23;99.70;;;;;;;;;;4993370;28;20830;-67
2022/10/20 05:10:03;;;;;;;213.20;107.70;;;;;;;;;;4988747;28;20220;-70
2022/10/20 05:12:32;;;;;;;459.03;204.93;;;;;;;;;;4991447;28;20742;-69
2022/10/20 05:15:23;;;;;;;150.43;84.13;;;;;;;;;;4992006;28;20272;-67
2022/10/20 05:17:47;;;;;;;410.73;186.33;;;;;;;;;;4985503;28;20592;-69
2022/10/20 05:20:13;;;;;;;92.40;61.50;;;;;;;;;;4990422;28;20219;-67
2022/10/20 05:22:39;;;;;;;196.07;100.40;;;;;;;;;;4989370;28;20589;-68
2022/10/20 05:25:05;;;;;;;238.27;110.03;;;;;;;;;;4986240;28;20351;-68
2022/10/20 05:27:31;;;;;;;270.80;120.93;;;;;;;;;;4990804;28;20229;-69
2022/10/20 05:29:57;;;;;;;465.57;211.20;;;;;;;;;;4981081;28;20323;-73
2022/10/20 05:32:26;;;;;;;168.43;84.23;;;;;;;;;;4995551;28;20590;-72
2022/10/20 05:34:52;;;;;;;308.93;149.73;;;;;;;;;;5005468;28;20288;-71
2022/10/20 05:37:18;;;;;;;118.10;67.97;;;;;;;;;;5005106;28;20860;-75
2022/10/20 05:39:44;;;;;;;311.53;146.90;;;;;;;;;;4998993;28;20646;-75
2022/10/20 05:42:10;;;;;;;226.97;105.13;;;;;;;;;;4997054;28;20632;-74
2022/10/20 05:44:36;;;;;;;201.67;102.20;;;;;;;;;;5011178;28;20301;-71
2022/10/20 05:47:02;;;;;;;311.73;149.67;;;;;;;;;;5011611;28;20237;-72
2022/10/20 05:49:29;;;;;;;60.40;43.37;;;;;;;;;;5004593;28;20211;-72
2022/10/20 05:51:58;;;;;;;452.03;201.07;;;;;;;;;;4999149;28;20213;-73
2022/10/20 05:54:24;;;;;;;217.87;100.37;;;;;;;;;;4997055;28;20694;-74
2022/10/20 05:56:56;;;;;;;316.57;139.50;;;;;;;;;;4987652;28;20204;-72
2022/10/20 05:59:22;;;;;;;344.53;145.17;;;;;;;;;;4980785;28;20211;-66
2022/10/20 06:01:48;;;;;;;348.63;149.93;;;;;;;;;;4944355;28;20507;-66
2022/10/20 06:04:15;;;;;;;110.90;67.13;;;;;;;;;;4989179;28;20213;-66
2022/10/20 06:06:43;;;;;;;302.13;146.00;;;;;;;;;;4989544;28;20751;-67
2022/10/20 06:09:12;;;;;;;393.63;187.93;;;;;;;;;;4985346;28;20283;-67
2022/10/20 06:11:41;;;;;;;293.37;144.23;;;;;;;;;;4984840;28;20655;-70
2022/10/20 06:14:08;;;;;;;295.63;143.30;;;;;;;;;;5000109;28;20223;-68
2022/10/20 06:16:34;;;;;;;89.27;53.43;;;;;;;;;;5018560;28;20250;-69
2022/10/20 06:19:01;;;;;;;215.97;105.13;;;;;;;;;;5039916;28;20752;-69
2022/10/20 06:21:29;;;;;;;143.43;83.33;;;;;;;;;;5039541;28;20211;-68
2022/10/20 06:23:55;;;;;;;283.17;135.67;;;;;;;;;;5005790;28;20212;-70
2022/10/20 06:26:30;;;;;;;324.83;144.17;;;;;;;;;;5005171;28;20197;-68
2022/10/20 06:28:57;;;;;;;323.97;145.23;;;;;;;;;;5005504;28;20696;-68
2022/10/20 06:31:24;;;;;;;248.80;107.97;;;;;;;;;;5002535;28;20338;-69
2022/10/20 06:33:50;;;;;;;160.10;81.23;;;;;;;;;;5004741;28;20224;-69
2022/10/20 06:36:17;;;;;;;435.10;185.90;;;;;;;;;;5004326;28;20280;-69
2022/10/20 06:38:44;;;;;;;272.13;123.27;;;;;;;;;;4988328;28;20192;-67
2022/10/20 06:41:15;;;;;;;187.90;99.50;;;;;;;;;;4987450;28;20230;-71
2022/10/20 06:43:44;;;;;;;318.87;164.67;;;;;;;;;;4980621;28;20932;-71
2022/10/20 06:46:14;;;;;;;379.70;175.27;;;;;;;;;;4970321;28;20217;-73
2022/10/20 06:48:40;;;;;;;192.50;99.07;;;;;;;;;;5009506;28;20274;-73
2022/10/20 06:51:09;;;;;;;393.63;188.47;;;;;;;;;;5021593;28;20220;-73
2022/10/20 06:53:35;;;;;;;288.50;144.13;;;;;;;;;;5021779;28;20177;-71
2022/10/20 06:56:11;;;;;;;204.00;104.60;;;;;;;;;;5011276;28;20596;-72
2022/10/20 06:58:38;;;;;;;117.53;73.83;;;;;;;;;;5012630;28;20254;-70
2022/10/20 07:01:09;;;;;;;173.33;103.50;;;;;;;;;;5021865;28;20277;-69
2022/10/20 07:03:36;;;;;;;311.90;137.15;;;;;;;;;;5022372;28;20673;-70
2022/10/20 07:06:02;;;;;;;95.93;57.97;;;;;;;;;;5023655;28;20669;-69
2022/10/20 07:08:28;;;;;;;348.00;159.30;;;;;;;;;;5024964;28;20207;-70
2022/10/20 07:11:14;;;;;;;96.70;65.40;;;;;;;;;;5024890;28;20777;-70
2022/10/20 07:13:43;;;;;;;342.87;142.37;;;;;;;;;;5016851;28;20216;-71
2022/10/20 07:16:17;;;;;;;146.37;66.57;;;;;;;;;;5022261;28;20613;-70
2022/10/20 07:18:43;;;;;;;83.97;45.87;;;;;;;;;;5026007;28;20216;-69
2022/10/20 07:21:14;;;;;;;359.70;151.80;;;;;;;;;;5022002;28;20227;-71
2022/10/20 07:23:40;;;;;;;317.90;136.30;;;;;;;;;;5024930;28;20210;-70
2022/10/20 07:26:11;;;;;;;253.70;104.85;;;;;;;;;;5023421;28;20221;-70
2022/10/20 07:28:39;;;;;;;255.30;113.05;;;;;;;;;;5021998;28;20235;-70
2022/10/20 07:31:07;;;;;;;299.63;120.07;;;;;;;;;;5016652;28;20739;-71
2022/10/20 07:33:33;;;;;;;199.93;87.07;;;;;;;;;;5021981;28;20575;-71
2022/10/20 07:35:59;;;;;;;236.63;118.47;;;;;;;;;;5025308;28;20211;-71
2022/10/20 07:38:25;;;;;;;146.37;67.30;;;;;;;;;;5020486;28;20672;-70
2022/10/20 07:40:52;;;;;;;161.23;78.97;;;;;;;;;;5025174;28;20630;-70
2022/10/20 07:43:27;;;;;;;264.37;119.47;;;;;;;;;;5024439;28;20254;-73
2022/10/20 07:45:56;;;;;;;420.33;176.97;;;;;;;;;;5005804;28;20231;-67
2022/10/20 07:48:21;;;;;;;189.63;89.43;;;;;;;;;;5024173;28;20219;-69
2022/10/20 07:50:53;;;;;;;248.07;105.53;;;;;;;;;;5024336;28;20259;-69
2022/10/20 07:53:22;;;;;;;200.90;88.43;;;;;;;;;;5023460;28;20715;-69
2022/10/20 07:55:48;;;;;;;190.37;87.30;;;;;;;;;;5025193;28;20274;-69
2022/10/20 07:58:17;;;;;;;252.57;116.30;;;;;;;;;;5021303;28;20215;-70
2022/10/20 08:00:43;;;;;;;287.43;119.90;;;;;;;;;;5020501;28;20289;-69
2022/10/20 08:03:12;;;;;;;353.67;147.87;;;;;;;;;;5017591;28;20232;-71
2022/10/20 08:05:38;;;;;;;206.77;96.20;;;;;;;;;;5011861;28;20243;-71
2022/10/20 08:08:04;;;;;;;313.27;149.07;;;;;;;;;;5007255;28;20291;-72
2022/10/20 08:10:30;;;;;;;382.00;168.87;;;;;;;;;;5008612;28;20273;-74
2022/10/20 08:12:59;;;;;;;329.20;142.23;;;;;;;;;;5005473;28;20235;-73
2022/10/20 08:15:25;;;;;;;167.50;82.20;;;;;;;;;;5007073;28;20244;-72
2022/10/20 08:17:51;;;;;;;389.20;185.90;;;;;;;;;;5002831;28;20712;-73
2022/10/20 08:20:17;;;;;;;371.20;164.73;;;;;;;;;;4997950;28;20370;-73
2022/10/20 08:22:43;;;;;;;213.47;105.20;;;;;;;;;;4993483;28;20256;-71
2022/10/20 08:25:13;;;;;;;406.23;185.37;;;;;;;;;;4993469;28;20236;-73
2022/10/20 08:27:39;;;;;;;347.60;171.27;;;;;;;;;;4993389;28;20639;-74
2022/10/20 08:30:05;;;;;;;158.47;86.40;;;;;;;;;;4993751;28;20319;-72
2022/10/20 08:32:31;;;;;;;303.00;137.10;;;;;;;;;;4997740;28;20212;-72
2022/10/20 08:34:57;;;;;;;77.90;54.20;;;;;;;;;;5009008;28;21508;-72
2022/10/20 08:37:41;;;;;;;326.33;153.63;;;;;;;;;;5005577;28;20224;-73
2022/10/20 08:40:07;;;;;;;243.07;120.77;;;;;;;;;;4996246;28;20208;-73
2022/10/20 08:42:43;;;;;;;404.27;191.10;;;;;;;;;;4989128;28;20248;-74
2022/10/20 08:45:32;;;;;;;208.67;109.10;;;;;;;;;;4989319;28;20302;-73
2022/10/20 08:48:02;;;;;;;344.47;162.67;;;;;;;;;;4989837;28;20308;-75
2022/10/20 08:50:30;;;;;;;313.27;149.73;;;;;;;;;;4993072;28;20188;-73
2022/10/20 08:52:58;;;;;;;168.43;88.43;;;;;;;;;;4979886;28;20236;-72
2022/10/20 08:55:27;;;;;;;320.00;159.97;;;;;;;;;;4988598;28;20221;-73
2022/10/20 08:57:54;;;;;;;441.20;217.33;;;;;;;;;;4977966;28;20279;-73
2022/10/20 09:00:22;;;;;;;401.07;200.53;;;;;;;;;;4960128;28;20601;-71
2022/10/20 09:02:53;;;;;;;373.00;183.00;;;;;;;;;;4980800;28;20192;-75
2022/10/20 09:05:21;;;;;;;406.30;205.40;;;;;;;;;;4988973;28;20187;-73
2022/10/20 09:07:50;;;;;;;268.63;147.17;;;;;;;;;;4972168;28;20279;-73
2022/10/20 09:10:29;;;;;;;266.17;140.33;;;;;;;;;;4987074;28;20938;-71
2022/10/20 09:12:59;;;;;;;285.23;148.23;;;;;;;;;;4980987;28;20342;-72
2022/10/20 09:15:25;;;;;;;373.87;189.63;;;;;;;;;;4971427;28;20834;-72
2022/10/20 09:18:09;;;;;;;241.65;142.60;;;;;;;;;;4978855;28;20224;-72
2022/10/20 09:20:43;;;;;;;450.25;235.00;;;;;;;;;;4980920;28;21119;-71
2022/10/20 09:23:11;;;;;;;324.10;163.33;;;;;;;;;;4980053;28;20244;-72
2022/10/20 09:25:38;;;;;;;418.20;208.10;;;;;;;;;;4990845;28;20240;-71
2022/10/20 09:28:04;;;;;;;311.53;179.97;;;;;;;;;;4996831;28;20336;-73
2022/10/20 09:30:30;;;;;;;215.57;124.00;;;;;;;;;;4989510;28;20365;-72
2022/10/20 09:32:56;;;;;;;418.93;209.07;;;;;;;;;;4998955;28;20243;-72
2022/10/20 09:35:39;;;;;;;425.00;215.47;;;;;;;;;;5008799;28;20210;-73
2022/10/20 09:38:11;;;;;;;278.47;159.40;;;;;;;;;;4995157;28;20314;-72
2022/10/20 09:40:54;;;;;;;369.33;186.20;;;;;;;;;;5008851;28;20304;-72
2022/10/20 09:43:20;;;;;;;244.83;131.80;;;;;;;;;;4993168;28;20278;-74
2022/10/20 09:45:50;;;;;;;344.40;183.17;;;;;;;;;;4987603;28;20574;-74
2022/10/20 09:48:32;;;;;;;304.03;167.33;;;;;;;;;;4983788;28;20303;-73
2022/10/20 09:50:59;;;;;;;423.97;217.17;;;;;;;;;;4997461;28;20188;-73
2022/10/20 09:53:30;;;;;;;415.23;216.23;;;;;;;;;;4993046;28;20185;-75
2022/10/20 09:55:56;;;;;;;470.77;247.53;;;;;;;;;;4984041;28;20260;-73
2022/10/20 09:58:30;;;;;;;388.07;200.70;;;;;;;;;;4992166;28;21024;-73
2022/10/20 10:00:58;;;;;;;490.07;248.07;;;;;;;;;;4982313;28;20232;-73
2022/10/20 10:03:28;;;;;;;427.83;220.57;;;;;;;;;;4986238;28;20212;-78
2022/10/20 10:05:58;;;;;;;592.00;300.10;;;;;;;;;;4983846;28;20579;-76
2022/10/20 10:08:26;;;;;;;112.27;73.97;;;;;;;;;;5009460;28;20299;-75
2022/10/20 10:10:59;;;;;;;314.00;164.70;;;;;;;;;;4988701;28;20225;-76
2022/10/20 10:13:26;;;;;;;394.70;199.40;;;;;;;;;;4990981;28;20284;-76
2022/10/20 10:16:04;;;;;;;276.80;140.70;;;;;;;;;;4996042;28;20213;-71
2022/10/20 10:18:30;;;;;;;318.33;164.90;;;;;;;;;;4998970;28;20220;-72
2022/10/20 10:20:58;;;;;;;266.70;147.90;;;;;;;;;;4990227;28;20247;-72
2022/10/20 10:23:28;;;;;;;213.37;122.77;;;;;;;;;;4994130;28;20274;-71
2022/10/20 10:25:55;;;;;;;223.30;126.47;;;;;;;;;;5007129;28;20456;-71
2022/10/20 10:28:28;;;;;;;329.33;181.50;;;;;;;;;;5006578;28;20476;-70
2022/10/20 10:31:20;;;;;;;294.97;158.77;;;;;;;;;;5000323;28;20217;-69
2022/10/20 10:33:50;;;;;;;397.07;190.83;;;;;;;;;;4996387;28;20221;-71
2022/10/20 10:36:24;;;;;;;229.40;132.17;;;;;;;;;;4987584;28;20223;-71
2022/10/20 10:38:51;;;;;;;347.97;179.47;;;;;;;;;;5006734;28;20695;-73
2022/10/20 10:41:22;;;;;;;396.70;205.97;;;;;;;;;;5024240;28;20192;-71
2022/10/20 10:43:52;;;;;;;331.43;175.30;;;;;;;;;;5013049;28;20265;-73
2022/10/20 10:46:26;;;;;;;173.53;113.90;;;;;;;;;;5020778;28;20462;-71
2022/10/20 10:48:58;;;;;;;199.67;122.17;;;;;;;;;;5010774;28;20277;-71
2022/10/20 10:51:43;;;;;;;307.40;170.00;;;;;;;;;;5027509;28;20215;-72
2022/10/20 10:54:28;;;;;;;312.33;184.33;;;;;;;;;;5015470;28;20302;-69
2022/10/20 10:56:56;;;;;;;243.80;142.45;;;;;;;;;;5021448;28;20207;-70
2022/10/20 10:59:24;;;;;;;201.90;119.80;;;;;;;;;;5001551;28;20187;-71
2022/10/20 11:02:00;;;;;;;196.90;127.10;;;;;;;;;;5001127;28;20245;-69
2022/10/20 11:04:42;;;;;;;144.50;105.60;;;;;;;;;;4989640;28;20243;-71
2022/10/20 11:07:27;;;;;;;405.57;224.50;;;;;;;;;;4986731;28;20341;-72
2022/10/20 11:10:10;;;;;;;360.60;197.07;;;;;;;;;;4984219;28;20274;-72
2022/10/20 11:12:43;;;;;;;282.90;170.73;;;;;;;;;;4985740;28;20257;-69
2022/10/20 11:15:09;;;;;;;446.10;248.30;;;;;;;;;;4999005;28;20351;-68
2022/10/20 11:17:43;;;;;;;299.30;172.87;;;;;;;;;;4989482;28;20201;-68
2022/10/20 11:20:41;;;;;;;272.27;163.13;;;;;;;;;;4978409;28;20242;-68
2022/10/20 11:23:12;;;;;;;169.70;119.10;;;;;;;;;;4978330;28;20724;-67
2022/10/20 11:25:51;;;;;;;432.10;247.33;;;;;;;;;;4997223;28;20235;-68
2022/10/20 11:28:43;;;;;;;331.43;198.50;;;;;;;;;;4975117;28;20223;-68
2022/10/20 11:31:15;;;;;;;276.77;169.10;;;;;;;;;;4975966;28;20639;-67
2022/10/20 11:33:47;;;;;;;430.80;238.50;;;;;;;;;;4983127;28;20365;-66
2022/10/20 11:36:18;;;;;;;314.80;193.37;;;;;;;;;;4976270;28;20581;-68
2022/10/20 11:38:52;;;;;;;324.87;199.87;;;;;;;;;;4984114;28;20307;-68
2022/10/20 11:41:24;;;;;;;328.73;186.70;;;;;;;;;;4991510;28;20304;-68
2022/10/20 11:44:10;;;;;;;486.20;267.00;;;;;;;;;;4997880;28;20488;-67
2022/10/20 11:46:36;;;;;;;487.43;247.67;;;;;;;;;;4983713;28;20248;-67
2022/10/20 11:49:11;;;;;;;598.97;318.87;;;;;;;;;;4994872;28;20232;-67
2022/10/20 11:51:40;;;;;;;489.33;248.97;;;;;;;;;;4976596;28;20208;-67
2022/10/20 11:54:25;;;;;;;610.13;326.67;;;;;;;;;;4981975;28;20688;-67
2022/10/20 11:57:14;;;;;;;543.35;290.55;;;;;;;;;;4975925;28;20327;-67
2022/10/20 11:59:50;;;;;;;504.30;269.50;;;;;;;;;;4981370;28;20223;-66
2022/10/20 12:02:35;;;;;;;589.60;319.13;;;;;;;;;;4984044;28;20692;-65
2022/10/20 12:05:10;;;;;;;735.47;413.30;;;;;;;;;;4977185;28;20596;-67
2022/10/20 12:07:52;;;;;;;601.87;330.77;;;;;;;;;;4979509;28;20296;-67
2022/10/20 12:10:33;;;;;;;471.80;243.67;;;;;;;;;;4986780;28;20221;-66
2022/10/20 12:13:17;;;;;;;572.33;309.57;;;;;;;;;;4982105;28;20212;-67
2022/10/20 12:15:48;;;;;;;631.47;344.87;;;;;;;;;;4975047;28;20321;-67
2022/10/20 12:18:19;;;;;;;590.70;318.03;;;;;;;;;;4979437;28;20274;-67
2022/10/20 12:20:49;;;;;;;477.43;251.03;;;;;;;;;;4989543;28;20189;-67
2022/10/20 12:23:41;;;;;;;540.67;287.10;;;;;;;;;;4984903;28;20236;-68
2022/10/20 12:26:27;;;;;;;544.17;293.83;;;;;;;;;;4979172;28;20276;-67
2022/10/20 12:28:53;;;;;;;489.70;267.50;;;;;;;;;;4960255;28;20343;-67
2022/10/20 12:31:22;;;;;;;499.90;282.10;;;;;;;;;;5001309;28;20216;-67
2022/10/20 12:33:55;;;;;;;447.53;244.57;;;;;;;;;;5012463;28;20911;-67
2022/10/20 12:36:27;;;;;;;523.50;289.53;;;;;;;;;;5010687;28;20464;-68
2022/10/20 12:38:54;;;;;;;297.47;164.67;;;;;;;;;;5013976;28;20181;-66
2022/10/20 12:41:32;;;;;;;480.20;273.07;;;;;;;;;;5013992;28;20180;-67
2022/10/20 12:44:01;;;;;;;530.67;299.50;;;;;;;;;;5007166;28;20278;-67
2022/10/20 12:46:30;;;;;;;471.03;263.77;;;;;;;;;;4998055;28;20593;-66
2022/10/20 12:49:00;;;;;;;604.70;340.20;;;;;;;;;;5009831;28;20226;-69
2022/10/20 12:51:32;;;;;;;482.80;269.40;;;;;;;;;;4995304;28;20303;-67
2022/10/20 12:54:07;;;;;;;379.90;199.07;;;;;;;;;;5016573;28;20716;-66
2022/10/20 12:56:38;;;;;;;455.60;240.87;;;17.90;1.00;;;;;;5010676;28;20740;-75
2022/10/20 12:59:43;;;;;;;609.97;332.40;;;17.70;99.90;;;;;;5008319;28;20316;-77
2022/10/20 13:02:08;;;;;;;496.70;261.83;;;18.60;99.90;;;;;;4993453;28;20215;-74
2022/10/20 13:04:57;;;;;;;596.80;333.95;;;19.30;99.90;;;;;;4997928;28;20205;-73
2022/10/20 13:07:45;;;;;;;558.60;311.00;;;20.30;99.90;;;;;;5002708;28;20352;-75
2022/10/20 13:10:26;;;;;;;596.83;331.23;;;19.90;99.90;;;;;;4985480;28;20238;-75
2022/10/20 13:12:53;;;;;;;372.15;209.48;;;21.30;99.90;;;;;;4984387;28;20617;-74
2022/10/20 13:15:25;;;;;;;452.88;278.50;;;22.80;99.90;;;;;;4989171;28;21616;-74
2022/10/20 13:18:03;;;;;;;545.85;331.10;;;22.70;99.90;;;;;;4991619;28;20192;-75
2022/10/20 13:20:44;;;;;;;537.10;328.80;;;22.40;99.90;;;;;;4980925;28;20195;-74
2022/10/20 13:23:18;;;;;;;614.78;382.52;;;22.70;99.90;;;;;;4964461;28;20214;-75
2022/10/20 13:25:50;;;;;;;557.67;346.33;;;22.90;99.90;;;;;;4979703;28;20216;-75
2022/10/20 13:28:28;;;;;;;645.78;409.50;;;23.10;99.90;;;;;;4974657;28;20806;-74
2022/10/20 13:31:23;;;;;;;595.60;387.35;;;23.60;99.90;;;;;;4977948;28;20330;-74
2022/10/20 13:34:03;;;;;;;536.97;341.80;;;23.70;89.10;;;;;;4985883;28;20351;-72
2022/10/20 13:37:10;;;;;;;569.38;362.63;;;23.70;65.10;;;;;;4999043;28;20243;-68
2022/10/20 13:40:24;;;;;;;563.08;335.02;;;23.60;55.30;;;;;;4984832;28;21332;-73
2022/10/20 13:43:31;;;;;;;491.33;302.98;;;22.90;33.90;;;;;;4957548;28;20815;-73
2022/10/20 13:46:40;;;;;;;653.55;406.70;;;22.60;1.00;;;;;;4947162;28;20778;-74
2022/10/20 13:49:27;;;;;;;665.42;418.08;;;23.50;1.00;;;;;;4978385;28;20283;-76
2022/10/20 13:52:08;;;;;;;629.53;395.05;;;24.20;18.50;;;;;;4982603;28;20298;-74
2022/10/20 13:54:37;;;;;;;472.73;304.17;;;24.00;99.90;;;;;;4979060;28;21708;-75
2022/10/20 13:57:07;;;;;;;532.13;344.65;;;24.80;1.00;;;;;;4977224;28;20294;-74
2022/10/20 13:59:36;;;;;;;666.17;425.58;;;25.50;99.90;;;;;;4974751;28;20208;-74
2022/10/20 14:02:25;;;;;;;511.25;336.17;;;24.90;99.90;;;;;;4969319;28;20260;-75
2022/10/20 14:05:12;;;;;;;577.90;376.77;;;25.60;98.80;;;;;;4971015;28;20293;-75
2022/10/20 14:07:46;;;;;;;586.20;388.83;;;25.50;35.10;;;;;;4963822;28;20780;-75